Aurora, Maine
Current Conditions -  °F | °C
As of 1:53 PM on Thursday 23 Oct 2014 (Local Time) from KBGR Reporting Station
Light Rain Light Rain  
Wind Chill: 50°   Ceiling: 900
Heat Index: 50°   Visibility: 2mi
Dew Point: 48°   Wind: 15mph
Humidity: 93%   Direction: 40°NE
Pressure: 29.86"   Gusts: NA
Location:  44.85°N, 68.33°W
Report Text: KBGR 231753Z 04013KT 2SM -RA BR BKN009 OVC014 10/09 A2986 RMK AO2 RAB00 CIG 006V012 SLP111 P0001 60048 T01000089 10106 20089 58020
Loading
Personal Weather Stations






























Interactive Weather Map New forecast layout! Learn more

10-Day Weather Forecast

Advertisements
Track Severe Weather on mobile